Time;durP1;ratioP1;P1;durP2;ratioP2;P2;SDS_P1;SDS_P2;PMS_P1;PMS_P2;Temp;Humidity;BMP_temperature;BMP_pressure;BME280_temperature;BME280_humidity;BME280_pressure;Samples;Min_cycle;Max_cycle;Signal;HPM_P1;HPM_P2
2021/04/01 00:01:10;;;;;;;50.05;32.95;;;;;;;12.26;72.13;100378.48;2828376;82;21194;-65
2021/04/01 00:05:15;;;;;;;49.10;33.10;;;;;;;12.19;72.04;100375.50;2828534;82;21195;-66
2021/04/01 00:09:18;;;;;;;42.13;27.87;;;;;;;12.13;72.20;100368.05;2823594;84;21199;-65
2021/04/01 00:13:21;;;;;;;45.88;30.02;;;;;;;12.07;72.42;100363.23;2821233;84;21179;-65
2021/04/01 00:17:26;;;;;;;47.03;30.37;;;;;;;12.02;72.77;100353.46;2821194;84;21150;-65
2021/04/01 00:21:29;;;;;;;51.10;31.87;;;;;;;11.98;72.75;100349.70;2820868;84;21178;-66
2021/04/01 00:25:32;;;;;;;46.45;32.58;;;;;;;11.95;72.88;100345.12;2821077;84;21194;-65
2021/04/01 00:29:35;;;;;;;41.45;27.00;;;;;;;11.91;72.99;100341.89;2820677;84;21175;-65
2021/04/01 00:33:38;;;;;;;39.15;26.87;;;;;;;11.90;73.02;100339.35;2820445;84;21198;-65
2021/04/01 00:37:42;;;;;;;37.55;26.25;;;;;;;11.92;72.85;100334.73;2820668;84;21597;-65
2021/04/01 00:41:45;;;;;;;41.80;28.38;;;;;;;11.90;72.76;100332.22;2820997;84;21179;-66
2021/04/01 00:45:49;;;;;;;47.60;29.23;;;;;;;11.82;72.56;100339.53;2820876;84;21625;-66
2021/04/01 00:49:51;;;;;;;34.83;24.75;;;;;;;11.71;73.21;100335.61;2820782;84;21592;-66
2021/04/01 00:53:54;;;;;;;38.85;27.85;;;;;;;11.68;73.07;100330.55;2820998;84;21609;-66
2021/04/01 00:58:01;;;;;;;39.98;27.80;;;;;;;11.72;73.09;100327.97;2821013;83;21198;-64
2021/04/01 01:02:05;;;;;;;42.30;27.50;;;;;;;11.77;72.61;100319.59;2820841;84;21163;-65
2021/04/01 01:06:08;;;;;;;44.38;27.37;;;;;;;11.77;72.19;100321.75;2820752;84;21208;-65
2021/04/01 01:10:18;;;;;;;34.78;22.42;;;;;;;11.65;72.76;100320.16;2820050;82;21149;-65
2021/04/01 01:14:22;;;;;;;33.67;21.33;;;;;;;11.59;72.95;100314.86;2820190;84;21193;-65
2021/04/01 01:18:28;;;;;;;34.35;24.77;;;;;;;11.46;72.72;100312.41;2780067;85;21165;-65
2021/04/01 01:22:33;;;;;;;35.23;23.73;;;;;;;11.38;72.88;100298.89;2779848;85;21181;-66
2021/04/01 01:26:35;;;;;;;35.80;24.52;;;;;;;11.40;73.10;100296.97;2779820;84;21194;-65
2021/04/01 01:30:38;;;;;;;31.27;23.25;;;;;;;11.41;73.03;100291.48;2779764;85;21172;-65
2021/04/01 01:34:42;;;;;;;35.45;22.15;;;;;;;11.37;72.80;100286.55;2779850;85;21161;-65
2021/04/01 01:38:45;;;;;;;31.90;23.60;;;;;;;11.35;73.05;100282.70;2779760;85;21943;-66
2021/04/01 01:42:51;;;;;;;34.03;24.45;;;;;;;11.33;72.95;100290.45;2779923;85;21161;-66
2021/04/01 01:46:54;;;;;;;36.48;23.22;;;;;;;11.32;72.91;100279.45;2780080;85;21537;-66
2021/04/01 01:50:59;;;;;;;31.42;21.97;;;;;;;11.34;72.92;100274.36;2779757;85;21176;-66
2021/04/01 01:55:03;;;;;;;34.13;22.55;;;;;;;11.34;72.94;100268.17;2779577;85;21643;-65
2021/04/01 01:59:07;;;;;;;32.65;24.00;;;;;;;11.34;72.96;100262.84;2779576;85;21188;-65
2021/04/01 02:03:11;;;;;;;41.88;26.68;;;;;;;11.37;72.98;100261.25;2779667;85;21633;-66
2021/04/01 02:07:14;;;;;;;27.52;20.43;;;;;;;11.35;72.76;100259.20;2779623;85;21172;-66
2021/04/01 02:11:18;;;;;;;29.72;20.48;;;;;;;11.29;72.79;100254.77;2840799;82;21106;-65
2021/04/01 02:15:25;;;;;;;35.08;20.97;;;;;;;11.23;72.88;100261.96;2815012;84;21172;-66
2021/04/01 02:19:29;;;;;;;32.63;22.05;;;;;;;11.08;73.53;100254.77;2899565;81;21152;-66
2021/04/01 02:23:34;;;;;;;31.93;20.68;;;;;;;10.83;73.93;100256.02;2899855;81;21128;-65
2021/04/01 02:27:37;;;;;;;30.85;21.17;;;;;;;10.64;74.32;100260.67;2899480;80;21173;-66
2021/04/01 02:31:41;;;;;;;27.10;19.65;;;;;;;10.57;74.99;100254.54;2899045;81;21173;-66
2021/04/01 02:35:44;;;;;;;26.62;18.80;;;;;;;10.60;75.28;100250.77;2899142;80;21178;-66
2021/04/01 02:39:47;;;;;;;33.38;21.52;;;;;;;10.63;74.76;100249.20;2899003;81;21202;-66
2021/04/01 02:43:50;;;;;;;30.40;23.38;;;;;;;10.65;74.55;100248.59;2898730;82;21155;-66
2021/04/01 02:47:53;;;;;;;26.62;18.45;;;;;;;10.69;74.51;100238.05;2910430;80;21142;-66
2021/04/01 02:51:56;;;;;;;33.50;20.15;;;;;;;10.73;74.27;100243.10;2946621;80;21169;-66
2021/04/01 02:55:59;;;;;;;26.35;18.77;;;;;;;10.77;73.99;100234.75;2946637;80;21117;-66
2021/04/01 03:00:08;;;;;;;26.80;18.95;;;;;;;10.77;73.13;100235.22;2946936;80;21118;-65
2021/04/01 03:04:11;;;;;;;34.27;21.87;;;;;;;10.76;73.53;100233.53;2828142;83;21156;-66
2021/04/01 03:08:14;;;;;;;25.90;18.27;;;;;;;10.74;73.37;100232.81;2844114;83;21160;-66
2021/04/01 03:12:16;;;;;;;27.98;19.10;;;;;;;10.69;73.18;100231.39;2799311;83;21576;-66
2021/04/01 03:16:19;;;;;;;26.60;18.48;;;;;;;10.71;73.03;100230.77;2815311;83;21210;-66
2021/04/01 03:20:22;;;;;;;31.52;17.90;;;;;;;10.69;72.66;100226.07;2820176;84;21164;-65
2021/04/01 03:24:25;;;;;;;22.05;16.93;;;;;;;10.64;72.50;100223.43;2820205;84;21160;-65
2021/04/01 03:28:29;;;;;;;23.07;15.50;;;;;;;10.41;73.07;100215.55;2820119;84;21177;-65
2021/04/01 03:32:34;;;;;;;25.55;18.55;;;;;;;10.20;73.69;100209.66;2818654;83;21168;-65
2021/04/01 03:36:37;;;;;;;24.33;17.07;;;;;;;10.13;74.39;100208.48;2899090;82;21149;-66
2021/04/01 03:40:40;;;;;;;33.98;19.05;;;;;;;10.19;74.46;100205.78;2899022;82;21154;-65
2021/04/01 03:44:43;;;;;;;24.82;17.73;;;;;;;10.25;73.95;100202.65;2898851;82;21158;-66
2021/04/01 03:48:46;;;;;;;23.98;14.90;;;;;;;10.27;73.65;100192.73;2899023;80;21162;-65
2021/04/01 03:52:49;;;;;;;23.67;15.08;;;;;;;10.20;73.62;100192.38;2898622;82;21138;-66
2021/04/01 03:56:52;;;;;;;25.52;17.37;;;;;;;10.17;74.18;100194.44;2898533;81;21167;-66
2021/04/01 04:18:14;;;;;;;19.32;14.58;;;;;;;10.22;73.17;100197.09;2891528;82;21161;-67
2021/04/01 04:22:19;;;;;;;22.45;16.32;;;;;;;10.21;72.68;100190.55;2891811;81;21131;-65
2021/04/01 04:26:23;;;;;;;23.35;17.98;;;;;;;10.17;72.64;100188.66;2891501;80;21157;-62
2021/04/01 04:30:30;;;;;;;18.75;15.08;;;;;;;10.16;72.94;100177.66;2891638;80;21129;-61
2021/04/01 04:34:35;;;;;;;23.30;16.48;;;;;;;10.15;73.02;100170.16;2891851;82;21188;-63
2021/04/01 04:38:38;;;;;;;24.82;16.25;;;;;;;10.14;73.00;100172.96;2890849;80;21129;-62
2021/04/01 04:42:42;;;;;;;25.97;15.88;;;;;;;10.16;72.80;100177.66;2891795;82;21164;-64
2021/04/01 04:46:45;;;;;;;25.10;16.30;;;;;;;10.07;72.67;100175.27;2890604;80;21132;-63
2021/04/01 04:50:49;;;;;;;24.37;15.60;;;;;;;10.11;73.12;100169.20;2891175;81;21155;-63
2021/04/01 04:54:52;;;;;;;20.70;15.98;;;;;;;10.15;73.46;100160.03;2891796;82;21581;-64
2021/04/01 04:59:02;;;;;;;20.00;14.65;;;;;;;10.35;74.08;100161.52;2892243;81;21177;-63
2021/04/01 05:07:20;;;;;;;18.73;14.70;;;;;;;11.31;73.37;100155.27;2891878;82;21159;-65
2021/04/01 05:11:25;;;;;;;20.10;14.23;;;;;;;11.65;72.52;100157.63;2901650;82;21166;-63
2021/04/01 05:15:28;;;;;;;20.12;14.65;;;;;;;12.06;72.76;100162.44;2905549;82;21196;-64
2021/04/01 05:19:32;;;;;;;22.15;14.10;;;;;;;12.45;73.14;100166.94;2905089;81;21633;-63
2021/04/01 05:23:44;;;;;;;19.75;13.50;;;;;;;12.91;72.81;100159.16;2904324;80;21173;-64
2021/04/01 05:27:50;;;;;;;17.42;12.80;;;;;;;13.26;70.48;100152.30;2895210;80;21157;-64
2021/04/01 05:31:52;;;;;;;19.62;12.98;;;;;;;13.53;69.24;100142.64;2863896;82;21148;-63
2021/04/01 05:35:55;;;;;;;20.02;15.15;;;;;;;13.89;68.89;100143.70;2903439;82;21176;-64
2021/04/01 05:39:59;;;;;;;18.85;14.73;;;;;;;14.34;69.06;100149.99;2918115;81;21134;-63
2021/04/01 05:44:15;;;;;;;18.27;12.10;;;;;;;14.95;68.03;100148.80;2918024;81;21198;-64
2021/04/01 06:01:13;;;;;;;20.12;12.73;;;;;;;15.13;65.94;100138.02;2943214;80;21142;-64
2021/04/01 06:05:11;;;;;;;23.65;14.68;;;;;;;15.04;67.24;100140.31;2940387;80;21579;-64
2021/04/01 06:09:28;;;;;;;22.13;13.93;;;;;;;15.09;67.53;100136.66;2852191;83;21177;-64
2021/04/01 06:13:35;;;;;;;20.85;13.75;;;;;;;15.11;67.72;100130.63;2908495;81;21125;-64
2021/04/01 06:17:47;;;;;;;23.25;14.93;;;;;;;15.15;68.15;100132.02;2908363;81;21113;-64
2021/04/01 06:21:50;;;;;;;23.45;14.68;;;;;;;15.10;68.22;100135.17;2919498;79;21149;-64
2021/04/01 06:25:55;;;;;;;21.77;14.28;;;;;;;14.96;67.60;100134.41;2929451;81;21646;-64
2021/04/01 06:30:22;;;;;;;20.30;14.67;;;;;;;14.76;67.96;100135.96;2929715;81;21189;-63
2021/04/01 06:34:39;;;;;;;17.10;11.68;;;;;;;14.73;68.06;100136.77;2967423;80;21133;-65
2021/04/01 06:38:39;;;;;;;31.50;17.40;;;;;;;14.64;69.13;100135.83;2927942;81;21510;-64
2021/04/01 06:42:50;;;;;;;24.02;15.45;;;;;;;14.59;70.62;100130.97;2967711;80;21141;-64
2021/04/01 06:46:58;;;;;;;22.27;15.83;;;;;;;14.73;72.57;100136.77;2898883;81;21697;-64
2021/04/01 06:51:08;;;;;;;23.45;16.23;;;;;;;14.84;71.78;100131.16;2881882;81;21590;-64
2021/04/01 06:59:49;;;;;;;21.85;14.75;;;;;;;15.28;70.15;100127.56;2882123;82;21166;-64
2021/04/01 07:04:04;;;;;;;20.72;15.13;;;;;;;15.62;69.73;100115.94;3066022;77;22799;-65
2021/04/01 07:08:10;;;;;;;19.17;13.90;;;;;;;15.84;70.11;100127.90;3020239;78;22124;-67
2021/04/01 07:12:23;;;;;;;20.12;13.90;;;;;;;16.08;70.10;100124.13;3021624;78;21069;-68
2021/04/01 07:16:40;;;;;;;23.32;15.32;;;;;;;16.20;69.90;100120.61;3019527;78;21133;-64
2021/04/01 07:20:48;;;;;;;22.45;15.05;;;;;;;16.35;69.02;100120.29;3019381;78;21162;-64
2021/04/01 07:46:40;;;;;;;28.98;15.43;;;;;;;16.80;68.30;100101.09;2996966;77;22283;-63
2021/04/01 07:50:44;;;;;;;30.60;19.07;;;;;;;16.96;69.39;100110.95;2951662;80;21157;-64
2021/04/01 08:07:18;;;;;;;37.88;21.23;;;;;;;17.65;65.91;100100.12;2945424;80;21125;-63
2021/04/01 08:11:29;;;;;;;46.55;21.05;;;;;;;17.76;65.65;100098.39;2921892;81;21165;-64
2021/04/01 08:15:54;;;;;;;34.88;21.75;;;;;;;17.99;65.50;100104.28;2921850;81;21167;-63
2021/04/01 08:20:00;;;;;;;42.45;20.90;;;;;;;18.05;64.97;100102.24;2922084;81;21171;-63
2021/04/01 08:24:08;;;;;;;35.10;25.52;;;;;;;18.12;64.43;100107.75;2917902;80;21169;-65
2021/04/01 08:37:10;;;;;;;46.10;29.40;;;;;;;18.30;65.97;100100.73;2876409;82;21147;-65
2021/04/01 08:41:34;;;;;;;;;;;;;;;18.43;66.33;100096.56;2896825;82;21170;-66
2021/04/01 08:45:53;;;;;;;34.60;23.85;;;;;;;18.49;66.00;100093.16;2857825;82;20193;-65
2021/04/01 08:50:32;;;;;;;35.28;22.22;;;;;;;18.60;64.12;100092.70;2878851;82;21147;-65
2021/04/01 08:54:52;;;;;;;30.45;20.68;;;;;;;18.65;63.84;100090.28;2876144;81;21128;-63
2021/04/01 08:59:25;;;;;;;28.87;18.82;;;;;;;18.67;64.23;100084.23;2873589;82;21160;-64
2021/04/01 09:03:34;;;;;;;31.57;18.67;;;;;;;18.59;65.38;100082.13;2873158;82;21152;-64
2021/04/01 09:07:45;;;;;;;25.62;15.85;;;;;;;18.57;65.25;100080.95;2873594;82;21156;-62
2021/04/01 09:12:02;;;;;;;24.32;17.70;;;;;;;18.60;65.40;100080.58;2855260;82;21914;-63
2021/04/01 09:20:23;;;;;;;21.52;17.80;;;;;;;18.63;63.97;100082.90;2873725;82;21635;-63
2021/04/01 09:24:33;;;;;;;27.20;17.10;;;;;;;18.66;65.33;100083.88;2873912;82;21125;-63
2021/04/01 09:28:41;;;;;;;26.45;17.70;;;;;;;18.70;64.73;100078.96;2873679;81;21093;-63
2021/04/01 09:32:48;;;;;;;28.17;17.95;;;;;;;18.69;61.74;100083.53;2873143;82;21133;-65
2021/04/01 09:36:54;;;;;;;29.27;19.65;;;;;;;18.70;63.35;100079.81;2854962;82;21156;-63
2021/04/01 09:40:57;;;;;;;33.38;20.10;;;;;;;18.74;63.67;100082.13;2873860;82;21614;-63
2021/04/01 09:45:02;;;;;;;26.50;17.80;;;;;;;18.80;62.28;100077.34;2890957;81;21168;-63
2021/04/01 09:49:11;;;;;;;27.32;18.30;;;;;;;18.83;61.38;100075.63;2909002;81;21137;-63
2021/04/01 09:53:21;;;;;;;34.65;18.67;;;;;;;18.87;61.04;100066.17;2858066;83;21130;-62
2021/04/01 09:57:43;;;;;;;32.00;18.27;;;;;;;18.86;59.56;100070.38;2858182;82;21161;-64
2021/04/01 10:01:45;;;;;;;20.92;15.58;;;;;;;18.82;60.64;100061.83;2857827;82;21170;-63
2021/04/01 10:05:51;;;;;;;23.70;16.32;;;;;;;18.87;60.37;100064.83;2858338;82;21118;-62
2021/04/01 10:09:57;;;;;;;;;;;;;;;18.97;61.10;100072.09;2860597;82;21141;-63
2021/04/01 10:14:07;;;;;;;25.37;18.12;;;;;;;19.08;60.64;100065.96;2858293;83;20213;-62
2021/04/01 10:18:14;;;;;;;25.05;17.10;;;;;;;19.20;60.48;100059.58;2858217;83;21165;-63
2021/04/01 10:22:32;;;;;;;38.63;21.77;;;;;;;19.36;60.24;100055.81;2869834;81;21151;-63
2021/04/01 10:26:42;;;;;;;25.55;16.70;;;;;;;19.54;61.56;100057.58;2899860;82;21161;-64
2021/04/01 10:30:47;;;;;;;28.60;19.82;;;;;;;19.61;55.58;100054.11;2899680;82;22389;-63
2021/04/01 10:34:58;;;;;;;22.80;17.98;;;;;;;19.66;56.58;100053.05;2883973;80;21425;-66
2021/04/01 10:43:20;;;;;;;25.43;16.70;;;;;;;19.95;58.92;100049.42;3001250;77;22422;-64
2021/04/01 10:47:44;;;;;;;27.35;17.15;;;;;;;20.07;56.53;100047.03;2954909;80;21172;-64
2021/04/01 10:51:56;;;;;;;32.40;19.90;;;;;;;20.08;56.37;100042.45;2955022;80;21149;-65
2021/04/01 10:56:06;;;;;;;28.17;19.73;;;;;;;20.13;56.00;100040.00;2954441;80;21164;-67
2021/04/01 11:00:14;;;;;;;34.25;18.92;;;;;;;20.19;55.88;100045.14;2954104;80;21141;-64
2021/04/01 11:04:17;;;;;;;32.30;19.15;;;;;;;20.20;56.20;100040.91;2955292;80;21141;-63
2021/04/01 11:08:24;;;;;;;26.25;18.32;;;;;;;20.25;57.13;100033.58;2954866;80;21146;-64
2021/04/01 11:12:29;;;;;;;23.20;16.15;;;;;;;20.40;55.92;100048.33;2954787;80;21149;-69
2021/04/01 11:16:34;;;;;;;31.68;20.10;;;;;;;20.49;56.88;100044.97;2944806;80;21172;-68
2021/04/01 11:20:40;;;;;;;62.03;22.55;;;;;;;20.75;56.48;100043.45;2907952;82;21168;-70
2021/04/01 11:24:43;;;;;;;31.95;18.48;;;;;;;20.92;54.63;100046.69;2907994;82;21081;-72
2021/04/01 11:28:49;;;;;;;85.92;27.60;;;;;;;21.11;55.36;100049.19;2907314;81;21109;-69
2021/04/01 11:32:55;;;;;;;29.00;17.92;;;;;;;21.35;53.75;100028.89;2859051;80;21296;-70
2021/04/01 11:36:59;;;;;;;31.87;19.07;;;;;;;21.47;52.93;100035.90;2859589;83;21081;-70
2021/04/01 11:41:06;;;;;;;35.20;18.62;;;;;;;21.51;54.95;100039.86;2865959;81;21140;-69
2021/04/01 11:45:11;;;;;;;33.18;18.00;;;;;;;21.75;54.94;100044.41;2877958;82;21096;-69
2021/04/01 11:49:14;;;;;;;26.68;17.75;;;;;;;21.99;53.08;100042.14;2877858;82;21144;-72
2021/04/01 11:53:17;;;;;;;32.63;18.05;;;;;;;22.05;53.25;100050.81;2884254;80;21180;-71
2021/04/01 11:57:26;;;;;;;28.85;18.82;;;;;;;21.95;46.40;100048.52;2963452;80;21097;-69
2021/04/01 12:01:33;;;;;;;29.65;18.85;;;;;;;21.77;46.41;100053.16;2962660;80;21640;-72
2021/04/01 12:05:41;;;;;;;28.90;20.47;;;;;;;21.63;48.26;100050.09;2962956;80;21102;-69
2021/04/01 12:09:52;;;;;;;32.73;20.43;;;;;;;21.47;48.62;100049.42;2947911;80;21096;-70
2021/04/01 12:14:10;;;;;;;33.35;20.02;;;;;;;21.36;47.58;100051.35;2926842;81;21121;-71
2021/04/01 12:18:14;;;;;;;31.90;19.35;;;;;;;21.20;48.30;100047.96;2926277;81;21113;-73
2021/04/01 12:22:17;;;;;;;40.43;18.70;;;;;;;21.04;50.67;100043.74;2876535;81;21176;-71
2021/04/01 12:26:20;;;;;;;27.32;16.52;;;;;;;20.94;52.03;100054.11;2900489;81;21097;-73
2021/04/01 12:30:31;;;;;;;29.02;19.55;;;;;;;20.87;48.91;100054.06;2927032;81;21118;-71
2021/04/01 12:34:34;;;;;;;27.40;17.75;;;;;;;20.91;49.17;100056.69;2926898;81;21108;-72
2021/04/01 12:38:42;;;;;;;28.70;16.95;;;;;;;20.90;50.97;100052.31;2927399;81;21413;-69
2021/04/01 12:42:48;;;;;;;23.40;14.00;;;;;;;20.93;49.06;100059.17;2916834;81;21128;-73
2021/04/01 12:46:51;;;;;;;17.00;11.60;;;;;;;20.93;46.22;100066.77;2913148;81;21136;-72
2021/04/01 12:51:00;;;;;;;25.85;11.95;;;;;;;20.88;48.83;100070.60;2913013;81;21427;-69
2021/04/01 12:55:01;;;;;;;18.40;11.50;;;;;;;20.79;47.99;100070.39;2913025;81;21153;-70
2021/04/01 13:03:19;;;;;;;21.12;11.90;;;;;;;20.53;47.42;100063.26;3001361;77;22590;-74
2021/04/01 13:11:26;;;;;;;24.50;12.63;;;;;;;20.33;50.18;100071.23;2955291;79;21117;-70
2021/04/01 13:15:29;;;;;;;21.60;14.70;;;;;;;20.28;50.84;100072.84;2955529;80;21137;-70
2021/04/01 13:19:32;;;;;;;22.35;14.33;;;;;;;20.19;50.51;100064.89;2952143;79;21141;-72
2021/04/01 13:23:59;;;;;;;22.55;12.80;;;;;;;20.10;50.34;100073.64;2927680;79;21669;-69
2021/04/01 13:27:54;;;;;;;24.52;15.00;;;;;;;20.01;50.40;100070.73;2942954;79;21141;-67
2021/04/01 13:36:14;;;;;;;25.55;14.50;;;;;;;19.93;51.88;100048.75;2888330;82;21164;-69
2021/04/01 13:40:14;;;;;;;25.30;14.85;;;;;;;19.96;52.04;100036.75;2895316;80;21117;-69
2021/04/01 13:44:20;;;;;;;24.30;14.00;;;;;;;20.03;50.48;100004.42;2873683;80;21165;-71
2021/04/01 13:48:26;;;;;;;;;;;;;;;20.12;51.91;100000.53;2892056;80;21488;-70
2021/04/01 13:52:36;;;;;;;25.77;16.75;;;;;;;20.23;51.52;99987.85;2885872;80;20134;-72
2021/04/01 13:56:41;;;;;;;24.87;15.58;;;;;;;20.33;50.55;99988.86;2909120;82;21287;-72
2021/04/01 14:09:20;;;;;;;24.92;15.83;;;;;;;20.95;49.83;99992.24;2874070;82;21116;-73
2021/04/01 14:13:24;;;;;;;26.40;15.05;;;;;;;21.11;48.50;99989.70;2874161;79;21638;-72
2021/04/01 14:17:28;;;;;;;26.90;14.95;;;;;;;21.17;48.26;99995.63;2897517;82;21184;-71
2021/04/01 14:21:33;;;;;;;23.45;15.83;;;;;;;21.20;48.26;100006.05;2907682;80;21133;-71
2021/04/01 14:25:40;;;;;;;25.50;16.60;;;;;;;21.22;50.48;100001.29;2952086;80;21094;-71
2021/04/01 14:29:40;;;;;;;24.18;14.23;;;;;;;21.19;47.97;100003.02;2952093;80;21138;-74
2021/04/01 14:33:47;;;;;;;24.55;13.68;;;;;;;21.12;48.32;99994.06;2923560;80;21132;-71
2021/04/01 14:37:54;;;;;;;24.63;13.38;;;;;;;21.02;49.40;100007.96;2886179;80;21135;-70
2021/04/01 14:42:04;;;;;;;21.63;13.37;;;;;;;20.90;49.05;100003.66;2876329;80;21185;-70
2021/04/01 14:46:07;;;;;;;18.50;14.53;;;;;;;20.93;51.93;100008.66;2877077;80;21177;-71
2021/04/01 14:50:11;;;;;;;26.82;15.60;;;;;;;20.96;53.87;100008.24;2882386;80;21184;-71
2021/04/01 14:54:18;;;;;;;23.15;12.82;;;;;;;20.95;54.25;100007.93;2882296;80;21149;-71
2021/04/01 14:58:20;;;;;;;;;;;;;;;20.87;53.57;100008.61;2885769;82;21121;-70
2021/04/01 15:02:24;;;;;;;27.02;14.53;;;;;;;20.68;54.25;100009.13;2871896;82;20173;-69
2021/04/01 15:06:29;;;;;;;22.02;13.50;;;;;;;20.57;54.78;100009.67;2872032;83;21181;-70
2021/04/01 15:10:33;;;;;;;20.55;14.18;;;;;;;20.48;52.43;100019.80;2869408;80;21187;-71
2021/04/01 15:14:36;;;;;;;23.10;13.70;;;;;;;20.31;53.52;100022.48;2877743;80;21208;-70
2021/04/01 15:18:42;;;;;;;28.02;15.98;;;;;;;20.10;54.44;100020.14;2872103;82;21626;-71
2021/04/01 15:22:45;;;;;;;32.10;16.90;;;;;;;19.96;52.77;100018.70;2847088;83;21108;-71
2021/04/01 15:26:48;;;;;;;21.27;13.60;;;;;;;19.80;58.09;100018.93;2846828;83;21160;-71
2021/04/01 15:30:51;;;;;;;31.87;16.73;;;;;;;19.58;57.79;100026.17;2846407;83;21165;-71
2021/04/01 15:34:55;;;;;;;18.45;10.20;;;;;;;19.31;58.53;100020.50;2846625;83;21160;-70
2021/04/01 15:38:58;;;;;;;14.93;9.38;;;;;;;19.09;52.12;100023.16;2846396;83;21605;-70
2021/04/01 15:43:04;;;;;;;15.18;8.98;;;;;;;19.02;55.67;100070.73;2845837;83;21164;-71
2021/04/01 15:47:06;;;;;;;17.85;10.23;;;;;;;18.58;59.69;100062.42;2846058;82;21160;-70
2021/04/01 15:51:09;;;;;;;15.20;9.35;;;;;;;18.13;61.91;100056.44;2845364;83;21144;-70
2021/04/01 15:55:13;;;;;;;12.85;8.88;;;;;;;17.73;64.06;100059.74;2845184;83;21120;-70
2021/04/01 15:59:17;;;;;;;14.23;7.30;;;;;;;17.35;64.77;100055.07;2845091;83;21630;-70
2021/04/01 16:03:20;;;;;;;9.45;6.80;;;;;;;17.10;66.23;100046.31;2844700;83;21160;-70
2021/04/01 16:07:23;;;;;;;14.05;7.58;;;;;;;16.91;66.89;100045.67;2844942;83;21151;-70
2021/04/01 16:11:26;;;;;;;13.18;7.20;;;;;;;16.83;67.70;100056.44;2845278;83;22216;-70
2021/04/01 16:15:30;;;;;;;12.98;7.60;;;;;;;16.75;68.26;100050.58;2844719;82;21606;-70
2021/04/01 16:19:33;;;;;;;10.50;6.87;;;;;;;16.66;68.79;100046.25;2845587;83;21144;-70
2021/04/01 16:23:36;;;;;;;11.12;7.75;;;;;;;16.57;69.91;100042.75;2844635;83;21559;-69
2021/04/01 16:27:41;;;;;;;12.80;7.87;;;;;;;16.53;70.26;100041.41;2844137;83;21229;-69
2021/04/01 16:31:48;;;;;;;10.40;7.70;;;;;;;16.50;71.24;100026.48;2844088;83;21176;-69
2021/04/01 16:35:54;;;;;;;18.60;10.98;;;;;;;16.51;71.14;100019.27;2844677;83;21160;-69
2021/04/01 16:40:00;;;;;;;12.35;7.72;;;;;;;16.50;71.18;100021.59;2844891;83;21207;-70
2021/04/01 16:44:04;;;;;;;14.20;7.78;;;;;;;16.50;71.64;100018.42;2845114;83;21196;-70
2021/04/01 16:48:08;;;;;;;16.57;9.00;;;;;;;16.55;72.35;100016.58;2844989;83;21136;-70
2021/04/01 16:52:14;;;;;;;16.67;8.70;;;;;;;16.62;72.78;100017.55;2844533;83;21140;-70
2021/04/01 16:56:20;;;;;;;21.70;9.08;;;;;;;16.67;72.83;100010.33;2844484;83;21156;-70
2021/04/01 17:00:25;;;;;;;15.85;10.25;;;;;;;16.70;72.73;100011.32;2845557;83;21184;-70
2021/04/01 17:04:28;;;;;;;14.68;10.15;;;;;;;16.73;72.32;100009.63;2859136;83;21187;-70
2021/04/01 17:08:33;;;;;;;27.25;16.80;;;;;;;16.72;72.50;100009.30;2859332;83;21566;-69
2021/04/01 17:12:37;;;;;;;54.25;35.63;;;;;;;16.55;72.99;100015.23;2859509;83;21171;-70
2021/04/01 17:16:41;;;;;;;54.48;42.70;;;;;;;16.35;73.65;100014.27;2859240;83;21146;-69
2021/04/01 17:20:44;;;;;;;65.65;52.45;;;;;;;16.23;74.51;100016.95;2859297;83;21151;-69
2021/04/01 17:24:49;;;;;;;45.60;34.90;;;;;;;16.15;74.84;100010.27;2857632;83;21164;-69
2021/04/01 17:28:52;;;;;;;41.20;34.38;;;;;;;16.13;75.44;100006.41;2859193;83;21136;-69
2021/04/01 17:32:55;;;;;;;66.20;50.25;;;;;;;16.12;75.31;100012.77;2859217;83;21598;-70
2021/04/01 17:36:58;;;;;;;55.20;42.05;;;;;;;16.07;75.49;100017.30;2859342;82;21650;-69
2021/04/01 17:41:01;;;;;;;28.42;21.73;;;;;;;16.11;75.98;100020.49;2874234;81;21140;-69
2021/04/01 17:45:07;;;;;;;28.83;20.70;;;;;;;16.17;75.86;100013.09;2896498;81;22232;-64
2021/04/01 17:49:11;;;;;;;35.48;24.25;;;;;;;16.08;76.04;100012.27;2867675;81;21125;-66
2021/04/01 17:53:16;;;;;;;28.27;21.20;;;;;;;15.96;76.62;100013.63;2919518;81;21149;-67
2021/04/01 17:57:20;;;;;;;21.07;15.95;;;;;;;15.95;76.93;100014.64;2919894;80;21136;-68
2021/04/01 18:01:31;;;;;;;22.20;13.98;;;;;;;15.97;76.83;100016.13;2900775;81;21469;-66
2021/04/01 18:22:09;;;;;;;18.82;10.93;;;;;;;16.10;76.18;100015.61;2860485;83;21453;-65
2021/04/01 18:35:37;;;;;;;21.37;14.15;;;;;;;15.99;75.73;100024.84;2899824;82;21137;-67
2021/04/01 18:39:48;;;;;;;20.43;13.05;;;;;;;15.89;75.52;100020.65;2901080;82;21125;-67
2021/04/01 18:43:49;;;;;;;15.15;11.97;;;;;;;15.85;75.99;100036.23;2900635;82;21149;-66
2021/04/01 18:56:31;;;;;;;14.25;10.32;;;;;;;15.67;75.80;100039.89;3007415;79;21567;-70
2021/04/01 19:00:38;;;;;;;24.90;19.53;;;;;;;15.58;76.50;100047.56;3007477;79;21156;-69
2021/04/01 19:04:44;;;;;;;69.80;38.73;;;;;;;15.36;76.94;100053.06;3007553;79;21141;-69
2021/04/01 19:08:52;;;;;;;43.55;25.92;;;;;;;15.15;77.54;100061.03;3007215;79;21113;-70
2021/04/01 19:26:15;;;;;;;30.00;19.10;;;;;;;14.83;78.21;100093.33;2974907;79;21114;-72
2021/04/01 19:30:20;;;;;;;23.57;17.27;;;;;;;14.90;78.29;100079.64;2944185;79;21119;-69
2021/04/01 19:34:25;;;;;;;24.20;15.98;;;;;;;14.92;78.70;100092.88;2937613;80;21141;-69
2021/04/01 19:38:29;;;;;;;28.02;17.73;;;;;;;14.94;78.54;100102.45;2882481;82;21153;-66
2021/04/01 19:42:35;;;;;;;24.57;15.10;;;;;;;14.95;77.95;100093.90;2856836;80;21177;-66
2021/04/01 19:46:40;;;;;;;25.55;14.43;;;;;;;14.93;77.80;100106.09;2812606;83;21184;-66
2021/04/01 19:50:46;;;;;;;27.90;17.15;;;;;;;14.88;78.03;100112.95;2807906;82;21613;-67
2021/04/01 19:54:56;;;;;;;21.97;13.88;;;;;;;14.80;78.41;100103.84;2838702;83;21118;-67
2021/04/01 19:59:02;;;;;;;28.38;17.07;;;;;;;14.82;78.73;100105.05;2892406;82;21125;-67
2021/04/01 20:03:07;;;;;;;27.30;18.60;;;;;;;14.81;78.37;100101.51;2834126;83;21663;-67
2021/04/01 20:07:10;;;;;;;25.77;17.52;;;;;;;14.76;78.23;100097.14;2811330;83;21564;-63
2021/04/01 20:11:14;;;;;;;26.50;17.50;;;;;;;14.69;78.13;100100.91;2832909;83;21161;-65
2021/04/01 20:15:18;;;;;;;25.72;17.80;;;;;;;14.54;78.31;100097.97;2844536;83;21189;-63
2021/04/01 20:19:22;;;;;;;27.73;16.95;;;;;;;14.42;78.76;100086.68;2898816;80;21141;-64
2021/04/01 20:23:25;;;;;;;29.98;19.73;;;;;;;14.36;78.97;100094.00;2905992;80;21133;-64
2021/04/01 20:27:28;;;;;;;29.75;20.32;;;;;;;14.41;79.35;100090.84;2844202;82;21604;-64
2021/04/01 20:31:32;;;;;;;30.92;17.77;;;;;;;14.45;78.91;100079.33;2864321;80;21558;-64
2021/04/01 20:35:35;;;;;;;25.97;18.57;;;;;;;14.42;79.25;100081.81;2861087;82;21623;-64
2021/04/01 20:39:38;;;;;;;34.27;22.95;;;;;;;14.30;79.44;100083.90;2830632;83;21149;-64
2021/04/01 20:43:43;;;;;;;31.70;19.75;;;;;;;14.24;79.40;100081.34;2805336;83;21178;-65
2021/04/01 20:47:49;;;;;;;32.70;20.23;;;;;;;14.19;79.17;100085.50;2814203;83;21197;-64
2021/04/01 20:51:53;;;;;;;37.30;23.47;;;;;;;14.12;79.34;100083.42;2789020;83;21460;-64
2021/04/01 20:55:57;;;;;;;29.98;19.65;;;;;;;14.03;79.77;100097.73;2841661;82;21126;-64
2021/04/01 21:00:00;;;;;;;32.85;22.20;;;;;;;13.87;81.00;100117.14;2789949;84;21157;-64
2021/04/01 21:04:04;;;;;;;34.60;22.17;;;;;;;13.73;81.89;100125.67;2798946;84;21511;-63
2021/04/01 21:08:12;;;;;;;43.15;30.32;;;;;;;13.69;82.29;100127.31;2822580;83;22249;-64
2021/04/01 21:12:15;;;;;;;36.00;23.85;;;;;;;13.63;82.44;100137.75;2803556;84;21168;-64
2021/04/01 21:16:18;;;;;;;39.65;25.23;;;;;;;13.55;82.97;100132.64;2884442;82;21194;-64
2021/04/01 21:20:21;;;;;;;47.15;26.85;;;;;;;13.60;82.92;100144.73;2802466;84;21134;-64